Terminal Aerodrome Forecast
Issued by NWS

Home | Current Version | Previous Version | Text Only | Print | Product List | Glossary On
Versions: 1 2 3 4 5 6 7 8 9 10 11 12 13 14
765
FTUS42 KGSP 310531
TAFGMU
TAF
KGMU 310531Z 3106/0106 01004KT P6SM BKN100
     FM310700 02006KT P6SM SCT250
     FM311700 07004KT P6SM SCT050 PROB30 3120/0102 4SM -TSRA
      BKN050CB=

USA.gov is the U.S. government's official web portal to all federal, state and local government web resources and services.